CheckWX is a tool to help pilots better visualize weather data.  It is not intended as a substitute for an official pre-flight weather briefing.

22:48:01 UTC

KIPT TAF
Williamsport Regional Airport
Williamsport, Pennsylvania, USA
KIPT 232332Z 2400/2424 26008KT P6SM SCT040 FM240400 10005KT P6SM OVC015 FM241700 12006KT P6SM OVC050

May-24@
00:00 UTC

May-24 @ 00:00 UTC

May-24@
04:00 UTC

May-24 @ 04:00 UTC

TAF KIPT 232332Z 2400/2424 26008KT P6SM SCT040

Expired

Wind
  • 260° at 8 KTS
Cloud Levels
  • Scattered at 4,000' AGL

May-24@
04:00 UTC

May-24 @ 04:00 UTC

May-24@
17:00 UTC

May-24 @ 17:00 UTC

FM240400 10005KT P6SM OVC015

Expired

Wind
  • 100° at 5 KTS
Cloud Levels
  • Overcast at 1,500' AGL

May-24@
17:00 UTC

May-24 @ 17:00 UTC

May-25@
00:00 UTC

May-25 @ 00:00 UTC

FM241700 12006KT P6SM OVC050

From

From Standard forecast or significant change

Wind
  • 120° at 6 KTS
Cloud Levels
  • Overcast at 5,000' AGL